createdAt,value
2022-09-11T00:01:43.923Z,99076.69
2022-09-11T00:04:12.599Z,99066.16
2022-09-11T00:06:41.398Z,99066.69
2022-09-11T00:09:10.060Z,99074.59
2022-09-11T00:11:41.373Z,99063.84
2022-09-11T00:14:14.766Z,99064.63
2022-09-11T00:16:45.582Z,99064.03
2022-09-11T00:19:17.444Z,99056.59
2022-09-11T00:21:46.412Z,99058.16
2022-09-11T00:24:15.121Z,99063.44
2022-09-11T00:26:44.964Z,99068.25
2022-09-11T00:29:15.125Z,99051.34
2022-09-11T00:31:43.844Z,99051.34
2022-09-11T00:34:12.486Z,99060.09
2022-09-11T00:36:43.252Z,99058.78
2022-09-11T00:39:12.954Z,99053.03
2022-09-11T00:41:43.346Z,99049.91
2022-09-11T00:44:45.420Z,99048.31
2022-09-11T00:47:17.751Z,99048.22
2022-09-11T00:49:48.106Z,99055.47
2022-09-11T00:52:19.490Z,99054.59
2022-09-11T00:54:50.761Z,99045.59
2022-09-11T00:57:21.930Z,99052.53
2022-09-11T00:59:51.365Z,99047.06
2022-09-11T01:02:27.196Z,99042.03
2022-09-11T01:04:56.779Z,99039.41
2022-09-11T01:07:26.546Z,99037.56
2022-09-11T01:09:55.850Z,99016.66
2022-09-11T01:12:29.623Z,99036.09
2022-09-11T01:15:03.113Z,99025.97
2022-09-11T01:17:39.100Z,99024.94
2022-09-11T01:20:22.507Z,99018.34
2022-09-11T01:23:07.383Z,99019.00
2022-09-11T01:25:51.924Z,99031.75
2022-09-11T01:28:24.825Z,99037.81
2022-09-11T01:30:59.295Z,99032.72
2022-09-11T01:33:31.158Z,99033.72
2022-09-11T01:36:04.763Z,99035.03
2022-09-11T01:38:35.426Z,99040.88
2022-09-11T01:41:08.496Z,99038.25
2022-09-11T01:43:43.390Z,99041.13
2022-09-11T01:46:14.538Z,99050.41
2022-09-11T01:48:45.913Z,99039.44
2022-09-11T01:51:17.456Z,99046.31
2022-09-11T01:53:50.238Z,99045.06
2022-09-11T01:56:22.288Z,99045.47
2022-09-11T01:58:56.048Z,99045.72
2022-09-11T02:01:28.863Z,99047.22
2022-09-11T02:04:01.823Z,99026.25
2022-09-11T02:06:32.906Z,99040.94
2022-09-11T02:09:06.037Z,99050.69
2022-09-11T02:11:37.232Z,99052.69
2022-09-11T02:14:10.677Z,99047.44
2022-09-11T02:16:49.215Z,99054.84
2022-09-11T02:19:19.908Z,99050.34
2022-09-11T02:21:49.136Z,99057.41
2022-09-11T02:24:18.192Z,99065.06
2022-09-11T02:26:50.719Z,99059.53
2022-09-11T02:29:21.069Z,99067.94
2022-09-11T02:31:51.139Z,99053.72
2022-09-11T02:34:21.623Z,99053.78
2022-09-11T02:37:15.933Z,99066.50
2022-09-11T02:40:00.272Z,99061.94
2022-09-11T02:42:36.834Z,99061.22
2022-09-11T02:45:13.461Z,99057.97
2022-09-11T02:47:46.937Z,99060.59
2022-09-11T02:50:23.675Z,99038.56
2022-09-11T02:52:58.407Z,99060.59
2022-09-11T02:55:32.892Z,99076.81
2022-09-11T02:58:04.729Z,99076.47
2022-09-11T03:00:35.253Z,99066.50
2022-09-11T03:03:04.366Z,99083.72
2022-09-11T03:05:32.999Z,99074.16
2022-09-11T03:08:04.291Z,99080.22
2022-09-11T03:10:33.349Z,99069.59
2022-09-11T03:13:01.989Z,99076.06
2022-09-11T03:15:30.678Z,99076.84
2022-09-11T03:18:01.440Z,99074.16
2022-09-11T03:20:30.114Z,99063.28
2022-09-11T03:22:58.749Z,99072.81
2022-09-11T03:25:28.421Z,99066.97
2022-09-11T03:27:57.063Z,99070.66
2022-09-11T03:30:25.695Z,99078.81
2022-09-11T03:32:54.421Z,99061.31
2022-09-11T03:35:25.057Z,99073.34
2022-09-11T03:37:55.510Z,99077.06
2022-09-11T03:40:24.337Z,99079.44
2022-09-11T03:42:52.956Z,99082.78
2022-09-11T03:45:22.395Z,99071.69
2022-09-11T03:47:51.224Z,99075.44
2022-09-11T03:50:19.866Z,99070.41
2022-09-11T03:52:50.093Z,99074.41
2022-09-11T03:55:18.915Z,99084.97
2022-09-11T03:57:47.569Z,99083.59
2022-09-11T04:00:16.723Z,99086.25
2022-09-11T04:02:46.315Z,99068.72
2022-09-11T04:05:15.103Z,99083.91
2022-09-11T04:07:43.999Z,99090.28
2022-09-11T04:10:14.358Z,99064.53
2022-09-11T04:12:44.219Z,99087.09
2022-09-11T04:15:13.737Z,99083.91
2022-09-11T04:17:42.584Z,99046.16
2022-09-11T04:20:11.750Z,99089.16
2022-09-11T04:22:40.976Z,99078.31
2022-09-11T04:25:11.072Z,99080.38
2022-09-11T04:27:41.120Z,99085.00
2022-09-11T04:30:10.718Z,99091.56
2022-09-11T04:32:39.347Z,99090.16
2022-09-11T04:35:08.626Z,99095.06
2022-09-11T04:37:37.315Z,99097.72
2022-09-11T04:40:06.953Z,99101.47
2022-09-11T04:42:35.603Z,99102.69
2022-09-11T04:45:06.520Z,99109.44
2022-09-11T04:47:35.230Z,99089.78
2022-09-11T04:50:07.670Z,99104.22
2022-09-11T04:52:36.316Z,99113.75
2022-09-11T04:55:05.372Z,99119.00
2022-09-11T04:57:33.992Z,99113.13
2022-09-11T05:00:03.161Z,99095.41
2022-09-11T05:02:33.481Z,99119.00
2022-09-11T05:05:02.784Z,99127.50
2022-09-11T05:07:32.051Z,99135.94
2022-09-11T05:10:00.690Z,99131.47
2022-09-11T05:12:30.365Z,99133.25
2022-09-11T05:15:00.187Z,99146.25
2022-09-11T05:17:29.000Z,99148.91
2022-09-11T05:19:59.077Z,99152.91
2022-09-11T05:22:27.704Z,99154.16
2022-09-11T05:24:56.338Z,99150.19
2022-09-11T05:27:25.113Z,99142.22
2022-09-11T05:29:53.756Z,99153.88
2022-09-11T05:32:24.125Z,99158.16
2022-09-11T05:34:52.765Z,99157.06
2022-09-11T05:37:22.786Z,99161.84
2022-09-11T05:39:51.944Z,99162.97
2022-09-11T05:42:22.113Z,99169.25
2022-09-11T05:44:50.769Z,99171.44
2022-09-11T05:47:19.416Z,99180.16
2022-09-11T05:49:48.087Z,99173.13
2022-09-11T05:52:16.802Z,99162.16
2022-09-11T05:54:47.141Z,99177.38
2022-09-11T05:57:15.806Z,99186.63
2022-09-11T05:59:44.424Z,99186.31
2022-09-11T06:02:13.184Z,99182.47
2022-09-11T06:04:41.822Z,99195.41
2022-09-11T06:07:10.498Z,99192.31
2022-09-11T06:09:39.149Z,99195.25
2022-09-11T06:12:12.406Z,99201.53
2022-09-11T06:14:43.869Z,99203.16
2022-09-11T06:17:12.528Z,99160.56
2022-09-11T06:19:41.211Z,99206.13
2022-09-11T06:22:10.132Z,99210.91
2022-09-11T06:24:38.799Z,99211.44
2022-09-11T06:27:08.794Z,99213.31
2022-09-11T06:29:37.408Z,99211.59
2022-09-11T06:32:06.693Z,99224.31
2022-09-11T06:34:35.656Z,99207.13
2022-09-11T06:37:04.647Z,99223.00
2022-09-11T06:39:34.101Z,99219.66
2022-09-11T06:42:02.803Z,99219.66
2022-09-11T06:44:32.982Z,99228.09
2022-09-11T06:47:01.575Z,99228.19
2022-09-11T06:49:30.335Z,99225.53
2022-09-11T06:51:59.358Z,99238.19
2022-09-11T06:54:27.966Z,99234.50
2022-09-11T06:56:56.780Z,99236.53
2022-09-11T06:59:26.610Z,99243.44
2022-09-11T07:01:56.756Z,99233.09
2022-09-11T07:04:25.488Z,99239.78
2022-09-11T07:06:54.117Z,99238.19
2022-09-11T07:09:22.740Z,99235.06
2022-09-11T07:11:51.418Z,99239.28
2022-09-11T07:14:21.370Z,99235.59
2022-09-11T07:16:51.009Z,99225.53
2022-09-11T07:19:21.108Z,99237.34
2022-09-11T07:21:49.762Z,99238.97
2022-09-11T07:24:21.327Z,99227.56
2022-09-11T07:26:50.448Z,99233.41
2022-09-11T07:29:19.079Z,99242.22
2022-09-11T07:31:48.219Z,99233.09
2022-09-11T07:34:16.810Z,99237.69
2022-09-11T07:36:47.871Z,99246.47
2022-09-11T07:39:16.610Z,99251.56
2022-09-11T07:41:45.270Z,99247.63
2022-09-11T07:44:14.942Z,99250.78
2022-09-11T07:46:43.812Z,99256.34
2022-09-11T07:49:12.507Z,99248.63
2022-09-11T07:51:41.476Z,99261.50
2022-09-11T07:54:12.082Z,99255.94
2022-09-11T07:56:41.602Z,99261.22
2022-09-11T07:59:10.390Z,99263.97
2022-09-11T08:01:39.279Z,99259.00
2022-09-11T08:04:09.188Z,99262.88
2022-09-11T08:06:39.249Z,99269.31
2022-09-11T08:09:11.299Z,99269.31
2022-09-11T08:11:41.897Z,99267.22
2022-09-11T08:14:11.482Z,99274.59
2022-09-11T08:16:40.628Z,99273.38
2022-09-11T08:19:11.228Z,99281.53
2022-09-11T08:21:40.039Z,99264.56
2022-09-11T08:24:08.616Z,99283.00
2022-09-11T08:26:38.728Z,99285.31
2022-09-11T08:29:07.435Z,99294.28
2022-09-11T08:31:36.783Z,99293.09
2022-09-11T08:34:05.495Z,99289.53
2022-09-11T08:36:34.158Z,99267.06
2022-09-11T08:39:02.791Z,99295.00
2022-09-11T08:41:36.889Z,99295.84
2022-09-11T08:44:15.266Z,99291.19
2022-09-11T08:46:46.382Z,99290.06
2022-09-11T08:49:20.545Z,99277.66
2022-09-11T08:51:51.204Z,99285.91
2022-09-11T08:54:32.029Z,99287.28
2022-09-11T08:57:12.317Z,99281.44
2022-09-11T08:59:59.758Z,99280.16
2022-09-11T09:02:41.685Z,99285.78
2022-09-11T09:05:21.186Z,99290.28
2022-09-11T09:08:01.375Z,99285.06
2022-09-11T09:10:42.715Z,99284.59
2022-09-11T09:13:35.924Z,99292.72
2022-09-11T09:16:11.772Z,99292.75
2022-09-11T09:18:43.233Z,99296.97
2022-09-11T09:21:14.072Z,99297.47
2022-09-11T09:23:44.545Z,99301.41
2022-09-11T09:26:17.109Z,99299.41
2022-09-11T09:28:47.443Z,99312.38
2022-09-11T09:31:21.876Z,99307.66
2022-09-11T09:33:53.820Z,99317.66
2022-09-11T09:36:24.666Z,99306.25
2022-09-11T09:38:53.688Z,99303.59
2022-09-11T09:41:55.308Z,99297.16
2022-09-11T09:44:36.355Z,99296.06
2022-09-11T09:47:12.033Z,99293.09
2022-09-11T09:49:41.109Z,99296.91
2022-09-11T09:52:17.861Z,99289.53
2022-09-11T09:55:00.105Z,99292.75
2022-09-11T09:57:32.987Z,99280.28
2022-09-11T10:00:07.926Z,99280.53
2022-09-11T10:02:43.145Z,99284.22
2022-09-11T10:05:19.069Z,99281.59
2022-09-11T10:07:49.741Z,99295.44
2022-09-11T10:10:29.823Z,99285.31
2022-09-11T10:13:18.497Z,99289.03
2022-09-11T10:15:50.542Z,99295.41
2022-09-11T10:18:35.867Z,99280.78
2022-09-11T10:21:33.570Z,99293.00
2022-09-11T10:24:04.122Z,99288.50
2022-09-11T10:26:36.172Z,99289.03
2022-09-11T10:29:10.051Z,99291.97
2022-09-11T10:31:42.880Z,99293.78
2022-09-11T10:34:20.257Z,99284.75
2022-09-11T10:36:56.293Z,99290.34
2022-09-11T10:39:27.701Z,99288.50
2022-09-11T10:41:59.252Z,99289.03
2022-09-11T10:44:29.303Z,99284.00
2022-09-11T10:47:06.374Z,99288.50
2022-09-11T10:49:36.502Z,99283.69
2022-09-11T10:52:18.777Z,99275.19
2022-09-11T10:55:01.942Z,99278.34
2022-09-11T10:57:34.298Z,99280.97
2022-09-11T11:00:14.308Z,99282.03
2022-09-11T11:02:45.677Z,99277.28
2022-09-11T11:05:21.423Z,99279.69
2022-09-11T11:08:00.786Z,99278.13
2022-09-11T11:10:44.890Z,99283.69
2022-09-11T11:13:29.876Z,99271.94
2022-09-11T11:16:07.588Z,99279.50
2022-09-11T11:18:49.037Z,99260.19
2022-09-11T11:21:27.585Z,99272.59
2022-09-11T11:24:07.346Z,99267.69
2022-09-11T11:26:50.716Z,99270.75
2022-09-11T11:29:34.642Z,99273.00
2022-09-11T11:32:13.716Z,99262.34
2022-09-11T11:35:01.195Z,99276.13
2022-09-11T11:37:35.102Z,99272.50
2022-09-11T11:40:06.983Z,99273.59
2022-09-11T11:42:39.908Z,99274.72
2022-09-11T11:45:11.599Z,99267.66
2022-09-11T11:47:43.169Z,99272.91
2022-09-11T11:50:23.436Z,99272.47
2022-09-11T11:52:59.994Z,99264.22
2022-09-11T11:55:35.043Z,99259.94
2022-09-11T11:58:07.905Z,99275.84
2022-09-11T12:00:40.416Z,99268.59
2022-09-11T12:03:14.610Z,99267.91
2022-09-11T12:05:43.468Z,99265.88
2022-09-11T12:08:15.877Z,99271.56
2022-09-11T12:10:47.915Z,99266.88
2022-09-11T12:13:18.118Z,99269.03
2022-09-11T12:16:05.703Z,99273.44
2022-09-11T12:18:38.092Z,99264.81
2022-09-11T12:21:41.637Z,99263.63
2022-09-11T12:24:14.188Z,99271.25
2022-09-11T12:26:43.081Z,99268.06
2022-09-11T12:29:51.626Z,99264.28
2022-09-11T12:32:41.923Z,99262.41
2022-09-11T12:35:19.378Z,99258.47
2022-09-11T12:37:54.151Z,99254.19
2022-09-11T12:40:32.436Z,99251.53
2022-09-11T12:43:18.404Z,99254.81
2022-09-11T12:45:48.446Z,99249.09
2022-09-11T12:48:20.136Z,99256.31
2022-09-11T12:50:50.894Z,99250.03
2022-09-11T12:53:24.522Z,99247.41
2022-09-11T12:55:59.205Z,99254.59
2022-09-11T12:58:34.091Z,99258.81
2022-09-11T13:01:17.705Z,99259.63
2022-09-11T13:03:53.933Z,99255.53
2022-09-11T13:06:23.056Z,99252.41
2022-09-11T13:08:54.087Z,99252.69
2022-09-11T13:11:42.073Z,99256.56
2022-09-11T13:14:49.065Z,99248.72
2022-09-11T13:17:25.784Z,99254.94
2022-09-11T13:19:58.775Z,99253.22
2022-09-11T13:22:31.048Z,99253.31
2022-09-11T13:25:07.426Z,99242.97
2022-09-11T13:27:39.624Z,99244.56
2022-09-11T13:30:09.440Z,99243.59
2022-09-11T13:32:38.182Z,99247.31
2022-09-11T13:35:11.119Z,99245.22
2022-09-11T13:37:41.611Z,99229.03
2022-09-11T13:40:19.427Z,99236.19
2022-09-11T13:42:50.247Z,99234.59
2022-09-11T13:45:20.353Z,99244.66
2022-09-11T13:47:49.116Z,99233.53
2022-09-11T13:50:20.882Z,99238.78
2022-09-11T13:52:50.557Z,99236.13
2022-09-11T13:55:21.540Z,99216.03
2022-09-11T13:57:58.129Z,99221.09
2022-09-11T14:00:41.176Z,99243.13
2022-09-11T14:03:20.342Z,99228.28
2022-09-11T14:05:54.157Z,99229.84
2022-09-11T14:08:27.599Z,99232.22
2022-09-11T14:10:59.139Z,99222.66
2022-09-11T14:13:33.062Z,99222.94
2022-09-11T14:16:05.768Z,99224.25
2022-09-11T14:18:38.206Z,99214.44
2022-09-11T14:21:13.739Z,99218.34
2022-09-11T14:23:48.195Z,99202.09
2022-09-11T14:26:18.885Z,99207.06
2022-09-11T14:29:00.894Z,99206.22
2022-09-11T14:31:34.181Z,99199.72
2022-09-11T14:34:17.780Z,99198.34
2022-09-11T14:36:52.943Z,99195.47
2022-09-11T14:39:26.397Z,99196.59
2022-09-11T14:41:56.179Z,99206.13
2022-09-11T14:44:27.296Z,99204.31
2022-09-11T14:46:57.633Z,99189.75
2022-09-11T14:49:26.423Z,99193.50
2022-09-11T14:51:58.194Z,99196.69
2022-09-11T14:54:28.104Z,99198.03
2022-09-11T14:56:57.111Z,99186.44
2022-09-11T14:59:30.203Z,99195.03
2022-09-11T15:01:59.793Z,99193.72
2022-09-11T15:04:29.632Z,99186.03
2022-09-11T15:06:59.744Z,99188.38
2022-09-11T15:09:29.184Z,99189.44
2022-09-11T15:11:58.141Z,99186.22
2022-09-11T15:14:52.257Z,99187.31
2022-09-11T15:17:20.111Z,99180.91
2022-09-11T15:19:50.217Z,99179.88
2022-09-11T15:22:19.569Z,99181.22
2022-09-11T15:24:49.872Z,99172.41
2022-09-11T15:27:19.161Z,99172.44
2022-09-11T15:29:49.282Z,99177.75
2022-09-11T15:32:18.319Z,99173.00
2022-09-11T15:34:47.408Z,99166.09
2022-09-11T15:37:17.402Z,99165.56
2022-09-11T15:39:46.183Z,99170.06
2022-09-11T15:42:15.056Z,99165.09
2022-09-11T15:44:46.068Z,99160.56
2022-09-11T15:47:16.538Z,99159.22
2022-09-11T15:49:47.592Z,99151.25
2022-09-11T15:52:16.620Z,99160.56
2022-09-11T15:54:45.639Z,99150.97
2022-09-11T15:57:14.671Z,99161.34
2022-09-11T15:59:43.592Z,99167.19
2022-09-11T16:02:12.650Z,99157.38
2022-09-11T16:04:42.722Z,99151.78
2022-09-11T16:07:11.728Z,99161.38
2022-09-11T16:09:40.519Z,99160.28
2022-09-11T16:12:09.303Z,99151.81
2022-09-11T16:14:38.490Z,99156.09
2022-09-11T16:17:08.584Z,99156.63
2022-09-11T16:19:38.613Z,99149.44
2022-09-11T16:22:09.992Z,99148.09
2022-09-11T16:24:38.679Z,99142.78
2022-09-11T16:27:10.121Z,99143.34
2022-09-11T16:30:11.455Z,99144.63
2022-09-11T16:32:31.774Z,99140.63
2022-09-11T16:35:00.502Z,99145.94
2022-09-11T16:37:32.800Z,99153.13
2022-09-11T16:40:02.922Z,99150.22
2022-09-11T16:42:32.422Z,99148.09
2022-09-11T16:45:01.137Z,99156.06
2022-09-11T16:47:30.407Z,99142.53
2022-09-11T16:50:07.784Z,99147.06
2022-09-11T16:52:39.032Z,99144.91
2022-09-11T16:55:09.537Z,99152.88
2022-09-11T16:57:38.617Z,99152.88
2022-09-11T17:00:08.959Z,99142.81
2022-09-11T17:02:38.482Z,99140.41
2022-09-11T17:05:08.128Z,99146.00
2022-09-11T17:07:38.808Z,99140.94
2022-09-11T17:10:09.039Z,99137.47
2022-09-11T17:12:37.808Z,99142.81
2022-09-11T17:15:07.799Z,99142.81
2022-09-11T17:17:37.064Z,99144.97
2022-09-11T17:20:09.440Z,99139.66
2022-09-11T17:22:40.031Z,99137.06
2022-09-11T17:25:09.513Z,99141.81
2022-09-11T17:27:38.572Z,99112.44
2022-09-11T17:30:08.164Z,99133.91
2022-09-11T17:32:38.681Z,99138.72
2022-09-11T17:35:08.091Z,99134.97
2022-09-11T17:37:37.065Z,99141.38
2022-09-11T17:40:08.943Z,99141.44
2022-09-11T17:42:37.730Z,99132.69
2022-09-11T17:45:07.678Z,99130.56
2022-09-11T17:47:36.622Z,99135.63
2022-09-11T17:50:05.885Z,99142.03
2022-09-11T17:52:36.909Z,99142.56
2022-09-11T17:55:07.487Z,99150.53
2022-09-11T17:57:36.230Z,99136.47
2022-09-11T18:00:06.051Z,99155.28
2022-09-11T18:02:34.735Z,99146.84
2022-09-11T18:05:03.504Z,99156.94
2022-09-11T18:07:32.202Z,99149.75
2022-09-11T18:10:02.382Z,99171.53
2022-09-11T18:12:35.228Z,99156.13
2022-09-11T18:15:04.064Z,99154.81
2022-09-11T18:17:32.714Z,99155.06
2022-09-11T18:20:03.286Z,99164.88
2022-09-11T18:22:32.418Z,99168.88
2022-09-11T18:25:01.438Z,99171.19
2022-09-11T18:27:30.213Z,99166.13
2022-09-11T18:30:00.424Z,99176.97
2022-09-11T18:32:30.109Z,99178.03
2022-09-11T18:35:00.117Z,99172.47
2022-09-11T18:37:29.089Z,99167.94
2022-09-11T18:39:58.429Z,99166.63
2022-09-11T18:42:28.669Z,99170.06
2022-09-11T18:44:57.582Z,99161.78
2022-09-11T18:47:28.219Z,99171.56
2022-09-11T18:49:59.598Z,99177.38
2022-09-11T18:52:30.712Z,99168.34
2022-09-11T18:55:00.207Z,99181.03
2022-09-11T18:57:29.210Z,99169.63
2022-09-11T18:59:57.916Z,99170.16
2022-09-11T19:02:28.635Z,99168.75
2022-09-11T19:04:57.324Z,99178.22
2022-09-11T19:07:26.312Z,99145.81
2022-09-11T19:09:55.309Z,99175.81
2022-09-11T19:12:26.142Z,99129.75
2022-09-11T19:14:56.619Z,99176.53
2022-09-11T19:17:25.362Z,99165.81
2022-09-11T19:19:55.564Z,99183.28
2022-09-11T19:22:24.857Z,99187.00
2022-09-11T19:24:53.703Z,99193.06
2022-09-11T19:27:22.447Z,99193.84
2022-09-11T19:29:55.601Z,99176.53
2022-09-11T19:32:24.873Z,99170.94
2022-09-11T19:35:17.567Z,99200.09
2022-09-11T19:37:45.148Z,99204.81
2022-09-11T19:40:15.330Z,99210.88
2022-09-11T19:42:43.990Z,99199.91
2022-09-11T19:45:12.650Z,99176.09
2022-09-11T19:47:41.304Z,99192.53
2022-09-11T19:50:16.027Z,99195.69
2022-09-11T19:52:44.677Z,99180.56
2022-09-11T19:55:13.366Z,99193.81
2022-09-11T19:57:42.158Z,99181.38
2022-09-11T20:00:11.531Z,99203.28
2022-09-11T20:02:40.217Z,99207.19
2022-09-11T20:05:11.278Z,99197.66
2022-09-11T20:07:40.041Z,99188.13
2022-09-11T20:10:10.583Z,99198.78
2022-09-11T20:12:39.629Z,99189.69
2022-09-11T20:15:09.437Z,99203.88
2022-09-11T20:17:39.423Z,99201.38
2022-09-11T20:20:08.759Z,99204.31
2022-09-11T20:22:38.991Z,99202.06
2022-09-11T20:25:08.331Z,99190.09
2022-09-11T20:27:37.006Z,99197.16
2022-09-11T20:30:06.536Z,99204.84
2022-09-11T20:32:37.751Z,99203.75
2022-09-11T20:35:07.274Z,99208.72
2022-09-11T20:37:36.257Z,99211.34
2022-09-11T20:40:08.042Z,99188.47
2022-09-11T20:42:36.701Z,99224.56
2022-09-11T20:45:06.039Z,99196.91
2022-09-11T20:47:34.707Z,99216.09
2022-09-11T20:50:03.625Z,99209.13
2022-09-11T20:52:36.104Z,99204.31
2022-09-11T20:55:10.095Z,99194.16
2022-09-11T20:57:38.911Z,99197.84
2022-09-11T21:00:09.534Z,99196.19
2022-09-11T21:02:38.272Z,99190.28
2022-09-11T21:05:07.420Z,99188.56
2022-09-11T21:07:36.060Z,99198.44
2022-09-11T21:10:05.437Z,99201.38
2022-09-11T21:12:35.548Z,99190.44
2022-09-11T21:15:04.323Z,99185.91
2022-09-11T21:17:32.973Z,99184.22
2022-09-11T21:20:01.654Z,99194.25
2022-09-11T21:22:30.472Z,99188.41
2022-09-11T21:24:59.143Z,99185.34
2022-09-11T21:27:29.965Z,99193.81
2022-09-11T21:30:00.124Z,99194.47
2022-09-11T21:32:28.849Z,99198.13
2022-09-11T21:34:57.593Z,99189.59
2022-09-11T21:37:27.662Z,99181.63
2022-09-11T21:39:56.373Z,99192.97
2022-09-11T21:42:25.221Z,99190.22
2022-09-11T21:44:54.386Z,99194.16
2022-09-11T21:47:24.426Z,99193.34
2022-09-11T21:49:53.125Z,99192.00
2022-09-11T21:52:21.886Z,99189.28
2022-09-11T21:54:54.522Z,99188.22
2022-09-11T21:57:23.407Z,99191.13
2022-09-11T21:59:52.092Z,99193.06
2022-09-11T22:02:20.759Z,99196.72
2022-09-11T22:04:51.097Z,99167.22
2022-09-11T22:07:20.310Z,99181.06
2022-09-11T22:09:49.128Z,99191.97
2022-09-11T22:12:17.862Z,99187.78
2022-09-11T22:14:48.746Z,99189.03
2022-09-11T22:17:17.554Z,99192.41
2022-09-11T22:19:46.848Z,99196.31
2022-09-11T22:22:17.125Z,99182.97
2022-09-11T22:24:45.833Z,99189.13
2022-09-11T22:27:15.445Z,99186.53
2022-09-11T22:29:47.175Z,99183.50
2022-09-11T22:32:16.028Z,99186.28
2022-09-11T22:34:44.656Z,99196.28
2022-09-11T22:37:13.315Z,99197.22
2022-09-11T22:39:43.780Z,99188.34
2022-09-11T22:42:12.468Z,99186.41
2022-09-11T22:44:42.026Z,99188.44
2022-09-11T22:47:10.686Z,99189.94
2022-09-11T22:49:39.353Z,99185.53
2022-09-11T22:52:08.398Z,99201.09
2022-09-11T22:54:37.034Z,99192.59
2022-09-11T22:57:07.229Z,99198.69
2022-09-11T22:59:35.858Z,99192.75
2022-09-11T23:02:04.713Z,99199.03
2022-09-11T23:04:33.855Z,99200.44
2022-09-11T23:07:18.321Z,99181.66
2022-09-11T23:09:46.954Z,99199.72
2022-09-11T23:12:16.928Z,99185.84
2022-09-11T23:14:45.693Z,99191.41
2022-09-11T23:17:14.496Z,99194.16
2022-09-11T23:19:43.156Z,99182.75
2022-09-11T23:22:11.967Z,99185.59
2022-09-11T23:24:40.747Z,99172.09
2022-09-11T23:27:09.600Z,99176.00
2022-09-11T23:29:39.576Z,99168.31
2022-09-11T23:32:08.185Z,99167.19
2022-09-11T23:34:37.023Z,99163.66
2022-09-11T23:37:05.807Z,99174.25
2022-09-11T23:39:34.570Z,99169.47
2022-09-11T23:42:03.385Z,99174.41
2022-09-11T23:44:32.025Z,99170.41
2022-09-11T23:47:02.217Z,99161.06
2022-09-11T23:49:35.547Z,99164.59
2022-09-11T23:52:05.872Z,99172.25
2022-09-11T23:54:34.461Z,99167.94
2022-09-11T23:57:03.163Z,99168.63
2022-09-11T23:59:35.904Z,99171.03
